Time;durP1;ratioP1;P1;durP2;ratioP2;P2;SDS_P1;SDS_P2;PMS_P1;PMS_P2;Temp;Humidity;BMP_temperature;BMP_pressure;BME280_temperature;BME280_humidity;BME280_pressure;Samples;Min_cycle;Max_cycle;Signal;HPM_P1;HPM_P2
2021/12/30 00:01:17;;;;;;;0.10;0.10;;;;;;;14.87;78.16;99443.50;7363081;19;20031;-57
2021/12/30 00:03:45;;;;;;;0.10;0.10;;;;;;;14.86;77.55;99444.47;7362104;19;20010;-57
2021/12/30 00:06:10;;;;;;;0.00;0.00;;;;;;;14.86;77.99;99442.66;7352866;19;20113;-57
2021/12/30 00:08:36;;;;;;;0.10;0.10;;;;;;;14.87;77.41;99430.38;7359764;19;20581;-57
2021/12/30 00:11:03;;;;;;;0.00;0.00;;;;;;;14.76;77.68;99418.72;7361426;19;20047;-57
2021/12/30 00:13:29;;;;;;;0.10;0.10;;;;;;;14.86;77.55;99432.16;7362799;19;20013;-56
2021/12/30 00:15:55;;;;;;;0.10;0.10;;;;;;;14.84;77.75;99441.06;7357714;19;20887;-57
2021/12/30 00:18:20;;;;;;;0.10;0.10;;;;;;;14.85;77.95;99437.47;7356688;19;20039;-57
2021/12/30 00:20:46;;;;;;;0.00;0.00;;;;;;;14.81;77.54;99436.84;7361459;19;20014;-58
2021/12/30 00:23:12;;;;;;;0.10;0.10;;;;;;;14.82;78.07;99438.53;7361463;19;20015;-57
2021/12/30 00:25:41;;;;;;;0.10;0.10;;;;;;;14.82;77.98;99432.44;7354808;19;20015;-57
2021/12/30 00:28:10;;;;;;;0.00;0.00;;;;;;;14.78;77.87;99437.88;7362774;19;20105;-57
2021/12/30 00:30:36;;;;;;;0.00;0.00;;;;;;;14.75;78.20;99432.81;7361543;19;20010;-58
2021/12/30 00:33:01;;;;;;;0.00;0.00;;;;;;;14.74;77.86;99414.47;7360300;19;20022;-57
2021/12/30 00:35:27;;;;;;;0.10;0.10;;;;;;;14.70;77.99;99402.47;7363306;19;20007;-57
2021/12/30 00:37:52;;;;;;;0.10;0.10;;;;;;;14.74;78.01;99415.31;7352350;19;20011;-57
2021/12/30 00:40:18;;;;;;;0.10;0.10;;;;;;;14.72;78.32;99411.97;7355755;19;20014;-57
2021/12/30 00:42:44;;;;;;;0.10;0.10;;;;;;;14.74;77.74;99409.22;7361716;19;20040;-57
2021/12/30 00:45:09;;;;;;;0.00;0.00;;;;;;;14.72;77.72;99414.59;7356130;19;20379;-57
2021/12/30 00:47:35;;;;;;;0.00;0.00;;;;;;;14.69;78.04;99422.63;7360738;19;20046;-57
2021/12/30 00:50:00;;;;;;;0.10;0.10;;;;;;;14.70;77.68;99410.34;7356183;19;20014;-57
2021/12/30 00:52:26;;;;;;;0.10;0.10;;;;;;;14.63;78.16;99407.25;7356258;19;20115;-57
2021/12/30 00:54:52;;;;;;;0.10;0.10;;;;;;;14.63;77.92;99409.03;7357947;19;20037;-57
2021/12/30 00:57:18;;;;;;;0.10;0.10;;;;;;;14.67;77.91;99414.03;7360496;19;20739;-58
2021/12/30 00:59:43;;;;;;;0.08;0.08;;;;;;;14.67;77.85;99440.28;7356305;19;20018;-57
2021/12/30 01:02:09;;;;;;;0.10;0.10;;;;;;;14.59;78.01;99415.41;7356211;19;20118;-57
2021/12/30 01:04:34;;;;;;;0.10;0.10;;;;;;;14.66;78.03;99422.84;7356811;19;20041;-56
2021/12/30 01:07:00;;;;;;;0.05;0.05;;;;;;;14.65;77.83;99421.16;7359356;19;20073;-57
2021/12/30 01:09:25;;;;;;;0.10;0.10;;;;;;;14.57;78.21;99412.88;7354244;19;20025;-57
2021/12/30 01:11:51;;;;;;;0.10;0.10;;;;;;;14.60;78.19;99428.47;7352734;19;20360;-56
2021/12/30 01:14:20;;;;;;;0.00;0.00;;;;;;;14.55;78.07;99409.50;7360379;19;20019;-56
2021/12/30 01:16:51;;;;;;;0.10;0.10;;;;;;;14.59;77.81;99424.13;7359242;19;20013;-57
2021/12/30 01:21:43;;;;;;;0.10;0.10;;;;;;;14.50;78.14;99432.59;7357858;19;20097;-58
2021/12/30 01:24:09;;;;;;;0.10;0.10;;;;;;;14.45;78.05;99424.94;7359274;19;20550;-57
2021/12/30 01:26:35;;;;;;;0.08;0.08;;;;;;;14.52;78.36;99430.69;7360413;19;20017;-57
2021/12/30 01:29:01;;;;;;;0.10;0.10;;;;;;;14.51;78.38;99439.53;7352605;19;20582;-57
2021/12/30 01:31:26;;;;;;;0.10;0.10;;;;;;;14.52;78.69;99434.16;7360728;19;20031;-57
2021/12/30 01:33:52;;;;;;;0.10;0.10;;;;;;;14.53;78.82;99421.88;7355727;19;20651;-57
2021/12/30 01:36:17;;;;;;;0.10;0.10;;;;;;;14.54;78.62;99413.03;7353201;19;20033;-57
2021/12/30 01:38:45;;;;;;;0.10;0.10;;;;;;;14.56;78.70;99424.31;7357809;19;20021;-57
2021/12/30 01:41:12;;;;;;;0.03;0.03;;;;;;;14.59;78.52;99429.38;7356417;19;20134;-57
2021/12/30 01:43:38;;;;;;;0.10;0.10;;;;;;;14.59;78.40;99412.78;7360600;19;20011;-57
2021/12/30 01:46:06;;;;;;;0.10;0.10;;;;;;;14.61;78.73;99409.13;7357174;19;20006;-57
2021/12/30 01:48:31;;;;;;;0.10;0.10;;;;;;;14.49;78.21;99375.69;7356461;19;20385;-56
2021/12/30 01:50:57;;;;;;;0.10;0.10;;;;;;;14.61;78.66;99408.28;7359042;19;20015;-57
2021/12/30 01:53:22;;;;;;;0.00;0.00;;;;;;;14.56;78.22;99390.19;7360540;19;20006;-56
2021/12/30 01:55:49;;;;;;;0.10;0.10;;;;;;;14.57;78.07;99399.75;7350866;19;20026;-58
2021/12/30 01:58:15;;;;;;;0.10;0.10;;;;;;;14.56;78.62;99394.59;7355705;19;20467;-58
2021/12/30 02:00:43;;;;;;;0.10;0.10;;;;;;;14.56;78.21;99395.44;7354496;19;20077;-57
2021/12/30 02:03:09;;;;;;;0.10;0.10;;;;;;;14.53;78.49;99400.84;7355970;19;20822;-57
2021/12/30 02:05:37;;;;;;;0.10;0.10;;;;;;;14.51;78.25;99398.34;7366404;19;20070;-57
2021/12/30 02:08:03;;;;;;;;;;;;;;;14.54;78.67;99408.63;7369190;19;20042;-58
2021/12/30 02:10:28;;;;;;;0.00;0.00;;;;;;;14.49;78.36;99409.84;7368466;19;21202;-57
2021/12/30 02:12:54;;;;;;;0.10;0.10;;;;;;;14.50;78.56;99416.81;7367592;19;20019;-58
2021/12/30 02:15:20;;;;;;;0.00;0.00;;;;;;;14.48;78.48;99408.16;7367354;19;20074;-59
2021/12/30 02:17:48;;;;;;;0.10;0.10;;;;;;;14.46;78.88;99407.38;7360342;19;20021;-57
2021/12/30 02:20:44;;;;;;;0.10;0.10;;;;;;;14.45;78.97;99403.09;7363852;19;20035;-57
2021/12/30 02:23:15;;;;;;;0.05;0.05;;;;;;;14.45;79.13;99403.09;7259601;19;2004422;-57
2021/12/30 02:25:41;;;;;;;0.03;0.03;;;;;;;14.46;79.05;99410.03;7343802;19;20009;-57
2021/12/30 02:28:09;;;;;;;0.00;0.00;;;;;;;14.47;79.06;99427.47;7364183;19;20006;-57
2021/12/30 02:30:35;;;;;;;0.10;0.10;;;;;;;14.35;78.83;99426.41;7364475;19;20015;-57
2021/12/30 02:33:01;;;;;;;0.00;0.00;;;;;;;14.47;78.75;99432.72;7364106;19;20096;-56
2021/12/30 02:35:27;;;;;;;0.10;0.10;;;;;;;14.47;79.06;99432.72;7366369;19;20573;-57
2021/12/30 02:37:52;;;;;;;0.10;0.10;;;;;;;14.47;78.72;99438.84;7361757;19;20006;-56
2021/12/30 02:40:26;;;;;;;0.10;0.10;;;;;;;14.50;79.07;99449.19;7365249;19;20070;-56
2021/12/30 02:42:52;;;;;;;0.10;0.10;;;;;;;14.47;78.96;99444.09;7361918;19;20400;-57
2021/12/30 02:45:17;;;;;;;0.10;0.10;;;;;;;14.44;78.94;99438.97;7360875;19;20113;-57
2021/12/30 02:47:43;;;;;;;0.10;0.10;;;;;;;14.47;79.14;99453.72;7356877;19;20017;-57
2021/12/30 02:50:08;;;;;;;0.00;0.00;;;;;;;14.46;79.04;99436.28;7361224;19;20006;-57
2021/12/30 02:52:34;;;;;;;0.10;0.10;;;;;;;14.47;79.05;99443.22;7360202;19;20017;-57
2021/12/30 02:54:59;;;;;;;0.10;0.10;;;;;;;14.47;78.81;99449.34;7364210;19;20010;-57
2021/12/30 02:57:25;;;;;;;0.10;0.10;;;;;;;14.41;78.72;99438.34;7364421;19;20034;-57
2021/12/30 02:59:51;;;;;;;0.00;0.00;;;;;;;14.46;79.00;99452.03;7358391;19;20010;-56
2021/12/30 03:02:16;;;;;;;0.10;0.10;;;;;;;14.45;78.59;99452.97;7360833;19;20045;-57
2021/12/30 03:04:42;;;;;;;0.10;0.10;;;;;;;14.44;78.77;99443.38;7367757;19;20018;-57
2021/12/30 03:07:07;;;;;;;0.10;0.10;;;;;;;14.32;79.03;99441.50;7364704;19;20511;-55
2021/12/30 03:09:33;;;;;;;0.10;0.10;;;;;;;14.43;78.99;99457.47;7365745;19;20376;-57
2021/12/30 03:11:59;;;;;;;0.10;0.10;;;;;;;14.45;79.14;99463.50;7357219;19;20029;-56
2021/12/30 03:14:26;;;;;;;0.10;0.10;;;;;;;14.44;78.85;99470.50;7367778;19;20019;-57
2021/12/30 03:16:52;;;;;;;0.05;0.05;;;;;;;14.35;79.02;99454.47;7363945;19;20018;-56
2021/12/30 03:19:17;;;;;;;0.00;0.00;;;;;;;14.42;79.14;99463.66;7364792;19;19999;-56
2021/12/30 03:21:43;;;;;;;0.08;0.08;;;;;;;14.42;78.97;99474.16;7363359;19;20025;-57
2021/12/30 03:24:08;;;;;;;0.00;0.00;;;;;;;14.40;78.88;99479.50;7358002;19;20017;-58
2021/12/30 03:26:35;;;;;;;0.10;0.10;;;;;;;14.40;79.15;99462.91;7367498;19;20010;-57
2021/12/30 03:29:01;;;;;;;0.00;0.00;;;;;;;14.36;79.08;99464.03;7353749;19;20555;-57
2021/12/30 03:31:27;;;;;;;0.10;0.10;;;;;;;14.36;78.72;99467.50;7362583;19;20451;-57
2021/12/30 03:33:52;;;;;;;0.00;0.00;;;;;;;14.35;78.68;99457.09;7367359;19;20026;-57
2021/12/30 03:36:19;;;;;;;0.00;0.00;;;;;;;14.36;78.86;99462.25;7366007;19;20022;-57
2021/12/30 03:38:48;;;;;;;0.10;0.10;;;;;;;14.35;79.11;99464.97;7362800;19;20451;-57
2021/12/30 03:41:19;;;;;;;0.00;0.00;;;;;;;14.35;79.19;99459.72;7362133;19;20006;-57
2021/12/30 03:43:45;;;;;;;0.03;0.03;;;;;;;14.33;79.06;99469.44;7362423;19;20027;-57
2021/12/30 03:46:10;;;;;;;0.10;0.10;;;;;;;14.32;79.37;99470.38;7356671;19;20633;-57
2021/12/30 03:48:42;;;;;;;0.03;0.03;;;;;;;14.31;78.96;99484.44;7366830;19;20023;-58
2021/12/30 03:51:13;;;;;;;0.10;0.10;;;;;;;14.30;79.02;99483.59;7365850;19;20451;-57
2021/12/30 03:53:41;;;;;;;0.00;0.00;;;;;;;14.30;79.32;99485.38;7366540;19;20018;-57
2021/12/30 03:56:11;;;;;;;0.10;0.10;;;;;;;14.32;79.08;99486.13;7354157;19;20009;-57
2021/12/30 03:58:39;;;;;;;0.10;0.10;;;;;;;14.28;79.42;99480.22;7365005;19;20011;-56
2021/12/30 04:01:05;;;;;;;0.05;0.05;;;;;;;14.24;79.51;99474.31;7358049;19;20026;-56
2021/12/30 04:03:31;;;;;;;0.00;0.00;;;;;;;14.28;79.66;99496.81;7360125;19;20002;-57
2021/12/30 04:05:57;;;;;;;0.00;0.00;;;;;;;14.27;79.37;99500.38;7364199;19;20018;-57
2021/12/30 04:08:23;;;;;;;0.05;0.05;;;;;;;14.23;79.58;99492.75;7357134;19;20045;-57
2021/12/30 04:10:48;;;;;;;0.10;0.10;;;;;;;14.25;79.55;99507.50;7366978;19;20028;-57
2021/12/30 04:13:14;;;;;;;0.00;0.00;;;;;;;14.15;79.92;99490.56;7349169;19;20013;-57
2021/12/30 04:15:40;;;;;;;0.10;0.10;;;;;;;14.20;80.02;99506.91;7357343;19;20020;-57
2021/12/30 04:18:06;;;;;;;0.00;0.00;;;;;;;14.31;80.05;99515.97;7361215;19;20023;-56
2021/12/30 04:20:31;;;;;;;0.10;0.10;;;;;;;14.33;79.97;99524.59;7364119;19;20082;-57
2021/12/30 04:22:57;;;;;;;0.00;0.00;;;;;;;14.35;79.84;99534.09;7363887;19;20038;-57
2021/12/30 04:25:23;;;;;;;0.10;0.10;;;;;;;14.37;79.60;99520.84;7359087;19;20010;-56
2021/12/30 04:27:48;;;;;;;0.00;0.00;;;;;;;14.36;79.98;99527.91;7355074;19;20006;-57
2021/12/30 04:30:15;;;;;;;0.10;0.10;;;;;;;14.39;79.63;99524.22;7363091;19;20368;-58
2021/12/30 04:32:41;;;;;;;0.10;0.10;;;;;;;14.39;79.80;99540.00;7367384;19;20047;-57
2021/12/30 04:35:08;;;;;;;0.10;0.10;;;;;;;14.38;79.93;99522.53;7360594;19;20388;-58
2021/12/30 04:37:33;;;;;;;0.10;0.10;;;;;;;14.40;80.07;99531.19;7366358;19;20062;-57
2021/12/30 04:39:59;;;;;;;0.05;0.05;;;;;;;14.40;79.70;99531.19;7359481;19;20018;-57
2021/12/30 04:42:25;;;;;;;0.00;0.00;;;;;;;14.42;80.04;99534.56;7364853;19;20846;-57
2021/12/30 04:44:50;;;;;;;0.10;0.10;;;;;;;14.43;80.25;99537.09;7357690;19;20006;-57
2021/12/30 04:47:16;;;;;;;0.10;0.10;;;;;;;14.47;80.10;99543.03;7356562;19;20018;-57
2021/12/30 04:49:42;;;;;;;0.10;0.10;;;;;;;14.51;79.82;99541.97;7367266;19;20456;-57
2021/12/30 04:52:07;;;;;;;0.10;0.10;;;;;;;14.56;80.00;99528.56;7360020;19;20027;-56
2021/12/30 04:54:33;;;;;;;0.00;0.00;;;;;;;14.58;79.78;99522.28;7358421;19;20006;-57
2021/12/30 04:56:59;;;;;;;0.05;0.05;;;;;;;14.62;80.25;99526.44;7366678;19;20043;-57
2021/12/30 04:59:24;;;;;;;0.00;0.00;;;;;;;14.67;80.00;99540.13;7357258;19;20040;-57
2021/12/30 05:01:50;;;;;;;0.00;0.00;;;;;;;14.72;80.11;99530.22;7364527;19;20431;-57
2021/12/30 05:04:16;;;;;;;0.10;0.10;;;;;;;14.76;80.02;99538.78;7362138;19;20398;-57
2021/12/30 05:06:41;;;;;;;0.10;0.10;;;;;;;14.79;79.91;99542.03;7363794;19;20489;-58
2021/12/30 05:09:08;;;;;;;0.10;0.10;;;;;;;14.84;79.84;99556.69;7362463;19;20014;-57
2021/12/30 05:11:35;;;;;;;0.05;0.05;;;;;;;14.86;79.62;99531.19;7366043;19;20015;-57
2021/12/30 05:14:01;;;;;;;0.10;0.10;;;;;;;14.86;79.79;99560.94;7360393;19;20030;-56
2021/12/30 05:16:27;;;;;;;0.10;0.10;;;;;;;14.78;79.47;99535.09;7365722;19;20017;-57
2021/12/30 05:18:56;;;;;;;0.00;0.00;;;;;;;14.89;79.42;99533.63;7359094;19;20018;-57
2021/12/30 05:21:22;;;;;;;0.10;0.10;;;;;;;14.90;79.76;99556.34;7353634;19;20025;-57
2021/12/30 05:23:47;;;;;;;0.10;0.10;;;;;;;14.70;79.59;99524.22;7366753;19;20007;-57
2021/12/30 05:26:15;;;;;;;0.00;0.00;;;;;;;14.85;79.35;99548.75;7356730;19;20007;-57
2021/12/30 05:28:41;;;;;;;0.10;0.10;;;;;;;14.82;79.19;99538.41;7359837;19;20501;-57
2021/12/30 05:31:07;;;;;;;0.10;0.10;;;;;;;14.78;79.60;99558.75;7361738;19;20427;-56
2021/12/30 05:33:32;;;;;;;0.00;0.00;;;;;;;14.75;79.70;99564.19;7356138;19;20007;-56
2021/12/30 05:35:59;;;;;;;0.08;0.08;;;;;;;14.70;79.85;99555.75;7363330;19;20003;-56
2021/12/30 05:38:24;;;;;;;0.03;0.03;;;;;;;14.67;79.90;99553.28;7356529;19;20022;-57
2021/12/30 05:40:50;;;;;;;0.00;0.00;;;;;;;14.63;79.41;99570.16;7364124;19;20014;-57
2021/12/30 05:43:15;;;;;;;0.05;0.05;;;;;;;14.59;79.63;99568.63;7371393;19;20411;-57
2021/12/30 05:45:40;;;;;;;0.00;0.00;;;;;;;14.57;80.29;99548.66;7362556;19;20009;-57
2021/12/30 05:48:06;;;;;;;0.10;0.10;;;;;;;14.54;80.35;99560.16;7369855;19;20010;-57
2021/12/30 05:50:32;;;;;;;0.05;0.05;;;;;;;14.48;80.05;99560.53;7361465;19;20049;-57
2021/12/30 05:52:58;;;;;;;0.08;0.08;;;;;;;14.51;80.45;99597.97;7369192;19;20518;-57
2021/12/30 05:55:24;;;;;;;0.10;0.10;;;;;;;14.49;80.65;99577.97;7371346;19;20015;-57
2021/12/30 05:57:52;;;;;;;0.00;0.00;;;;;;;14.48;80.74;99592.03;7365807;19;20086;-58
2021/12/30 06:00:19;;;;;;;0.00;0.00;;;;;;;14.48;80.56;99582.38;7364962;19;20018;-57
2021/12/30 06:02:45;;;;;;;;;;;;;;;14.51;80.38;99576.13;7359190;19;20037;-56
2021/12/30 06:05:11;;;;;;;0.08;0.08;;;;;;;14.47;80.29;99585.94;7371222;19;19924;-57
2021/12/30 06:07:37;;;;;;;0.10;0.10;;;;;;;14.47;80.48;99598.19;7366005;19;20074;-57
2021/12/30 06:10:03;;;;;;;0.10;0.10;;;;;;;14.47;80.66;99606.06;7362196;19;20073;-57
2021/12/30 06:12:29;;;;;;;0.10;0.10;;;;;;;14.45;80.65;99618.47;7371911;19;20036;-56
2021/12/30 06:14:54;;;;;;;0.00;0.00;;;;;;;14.45;80.56;99642.09;7369447;19;20011;-57
2021/12/30 06:17:20;;;;;;;0.10;0.10;;;;;;;14.44;81.01;99614.13;7365118;19;20011;-58
2021/12/30 06:19:45;;;;;;;0.10;0.10;;;;;;;14.44;80.67;99629.88;7364343;19;20014;-57
2021/12/30 06:22:12;;;;;;;0.05;0.05;;;;;;;14.41;80.75;99654.56;7363392;19;20538;-57
2021/12/30 06:24:38;;;;;;;0.07;0.07;;;;;;;14.41;81.11;99641.41;7364870;19;20455;-57
2021/12/30 06:27:03;;;;;;;0.10;0.10;;;;;;;14.43;81.14;99649.22;7367571;19;20018;-57
2021/12/30 06:29:29;;;;;;;0.10;0.10;;;;;;;14.46;81.25;99651.69;7363314;19;20316;-57
2021/12/30 06:31:54;;;;;;;0.00;0.00;;;;;;;14.46;80.96;99656.94;7364199;19;20018;-57
2021/12/30 06:34:20;;;;;;;0.10;0.10;;;;;;;14.46;81.25;99656.94;7366429;19;20014;-57
2021/12/30 06:36:45;;;;;;;0.00;0.00;;;;;;;14.46;81.13;99662.19;7365715;19;20021;-57
2021/12/30 06:39:11;;;;;;;0.03;0.03;;;;;;;14.47;81.08;99663.88;7359822;19;20015;-56
2021/12/30 06:41:37;;;;;;;0.00;0.00;;;;;;;14.47;80.88;99670.00;7370161;19;20022;-57
2021/12/30 06:44:03;;;;;;;0.10;0.10;;;;;;;14.45;81.05;99665.75;7357976;19;20094;-58
2021/12/30 06:46:28;;;;;;;0.10;0.10;;;;;;;14.47;80.95;99669.13;7367398;19;20010;-57
2021/12/30 06:48:54;;;;;;;0.00;0.00;;;;;;;14.46;80.74;99680.56;7361793;19;20089;-57
2021/12/30 06:51:22;;;;;;;0.10;0.10;;;;;;;14.36;80.72;99671.50;7371132;19;20014;-58
2021/12/30 06:53:47;;;;;;;0.00;0.00;;;;;;;14.44;80.57;99683.25;7363590;19;20010;-57
2021/12/30 06:56:14;;;;;;;0.10;0.10;;;;;;;14.44;80.59;99695.53;7366239;19;20007;-57
2021/12/30 06:58:40;;;;;;;0.10;0.10;;;;;;;14.40;80.51;99705.41;7364032;19;20014;-57
2021/12/30 07:01:05;;;;;;;0.10;0.10;;;;;;;14.42;80.53;99707.94;7365500;19;20092;-57
2021/12/30 07:03:31;;;;;;;0.00;0.00;;;;;;;14.42;80.73;99715.81;7359352;19;20006;-58
2021/12/30 07:05:56;;;;;;;0.10;0.10;;;;;;;14.39;80.38;99721.22;7368374;19;20041;-56
2021/12/30 07:08:22;;;;;;;0.10;0.10;;;;;;;14.39;80.32;99723.84;7361628;19;20721;-58
2021/12/30 07:10:48;;;;;;;0.00;0.00;;;;;;;14.30;80.31;99698.09;7367064;19;20040;-57
2021/12/30 07:13:14;;;;;;;0.10;0.10;;;;;;;14.35;80.32;99704.78;7359267;19;20015;-57
2021/12/30 07:15:39;;;;;;;0.00;0.00;;;;;;;14.34;80.49;99715.38;7366791;19;20450;-57
2021/12/30 07:18:05;;;;;;;0.10;0.10;;;;;;;14.32;80.46;99714.59;7356781;19;20014;-57
2021/12/30 07:20:31;;;;;;;0.03;0.03;;;;;;;14.21;80.15;99700.28;7369321;19;20537;-57
2021/12/30 07:22:56;;;;;;;0.10;0.10;;;;;;;14.17;80.50;99698.75;7360434;19;20665;-57
2021/12/30 07:25:22;;;;;;;0.00;0.00;;;;;;;14.27;80.15;99728.81;7364721;19;20080;-57
2021/12/30 07:27:49;;;;;;;0.00;0.00;;;;;;;14.25;80.41;99730.69;7361506;19;20022;-57
2021/12/30 07:30:16;;;;;;;;;;;;;;;14.27;80.34;99731.44;7366914;19;20010;-57
2021/12/30 07:32:41;;;;;;;0.00;0.00;;;;;;;14.21;80.00;99739.66;7363703;19;19915;-57
2021/12/30 07:35:07;;;;;;;0.00;0.00;;;;;;;14.10;80.15;99728.88;7362449;19;20029;-57
2021/12/30 07:37:33;;;;;;;0.00;0.00;;;;;;;14.15;79.84;99741.78;7358822;19;20041;-57
2021/12/30 07:39:59;;;;;;;0.08;0.08;;;;;;;14.09;80.17;99750.81;7364714;19;20388;-59
2021/12/30 07:42:24;;;;;;;0.08;0.08;;;;;;;14.09;80.36;99749.94;7363760;19;20010;-57
2021/12/30 07:44:50;;;;;;;0.10;0.10;;;;;;;14.04;80.53;99760.72;7361851;19;19998;-58
2021/12/30 07:47:15;;;;;;;0.00;0.00;;;;;;;14.03;80.31;99769.50;7364297;19;20014;-57
2021/12/30 07:49:41;;;;;;;0.00;0.00;;;;;;;14.03;80.75;99782.63;7358810;19;20013;-57
2021/12/30 07:52:07;;;;;;;0.10;0.10;;;;;;;14.02;81.04;99789.66;7365906;19;20007;-58
2021/12/30 07:54:33;;;;;;;0.05;0.05;;;;;;;14.03;80.79;99793.13;7362778;19;20369;-57
2021/12/30 07:57:00;;;;;;;0.10;0.10;;;;;;;14.05;80.91;99793.91;7356921;19;20019;-56
2021/12/30 07:59:25;;;;;;;0.10;0.10;;;;;;;14.08;80.99;99793.72;7362878;19;20010;-58
2021/12/30 08:01:51;;;;;;;0.10;0.10;;;;;;;14.10;80.70;99791.91;7357192;19;20022;-57
2021/12/30 08:04:16;;;;;;;0.08;0.08;;;;;;;14.08;80.74;99777.97;7365874;19;20006;-58
2021/12/30 08:06:42;;;;;;;0.10;0.10;;;;;;;14.15;81.01;99783.78;7364898;19;20006;-56
2021/12/30 08:09:08;;;;;;;0.00;0.00;;;;;;;14.16;80.98;99791.56;7365844;19;20014;-57
2021/12/30 08:11:34;;;;;;;0.10;0.10;;;;;;;14.20;80.54;99793.13;7361854;19;20007;-57
2021/12/30 08:13:59;;;;;;;0.10;0.10;;;;;;;14.22;80.55;99783.38;7360932;19;20018;-56
2021/12/30 08:16:29;;;;;;;0.00;0.00;;;;;;;14.15;80.82;99758.38;7365283;19;20018;-57
2021/12/30 08:18:55;;;;;;;0.10;0.10;;;;;;;14.25;80.85;99769.25;7347877;19;20046;-57
2021/12/30 08:21:22;;;;;;;0.10;0.10;;;;;;;14.28;80.91;99769.91;7356507;19;20021;-57
2021/12/30 08:23:51;;;;;;;0.00;0.00;;;;;;;14.31;81.04;99770.69;7366178;19;20793;-56
2021/12/30 08:26:17;;;;;;;0.00;0.00;;;;;;;14.27;80.96;99786.59;7356761;19;20592;-58
2021/12/30 08:28:43;;;;;;;0.00;0.00;;;;;;;14.36;80.56;99792.31;7358071;19;20017;-57
2021/12/30 08:31:09;;;;;;;0.00;0.00;;;;;;;14.36;80.68;99790.53;7351028;19;20016;-57
2021/12/30 08:33:35;;;;;;;0.10;0.10;;;;;;;14.40;80.93;99809.63;7355062;19;20003;-57
2021/12/30 08:36:00;;;;;;;0.10;0.10;;;;;;;14.41;80.59;99827.06;7352158;19;20676;-57
2021/12/30 08:38:26;;;;;;;0.03;0.03;;;;;;;14.39;80.41;99828.91;7354736;19;20002;-57
2021/12/30 08:40:52;;;;;;;0.08;0.08;;;;;;;14.46;80.37;99852.16;7361951;19;20345;-57
2021/12/30 08:43:17;;;;;;;0.10;0.10;;;;;;;14.48;80.61;99866.09;7365703;19;20007;-57
2021/12/30 08:45:45;;;;;;;0.10;0.10;;;;;;;14.51;80.66;99863.31;7355988;19;20035;-57
2021/12/30 08:48:11;;;;;;;0.10;0.10;;;;;;;14.53;80.70;99863.22;7363879;19;20015;-57
2021/12/30 08:50:37;;;;;;;0.10;0.10;;;;;;;14.55;80.33;99845.63;7357705;19;20447;-57
2021/12/30 08:53:03;;;;;;;0.10;0.10;;;;;;;14.58;80.05;99840.19;7363809;19;20025;-58
2021/12/30 08:55:29;;;;;;;0.08;0.08;;;;;;;14.60;79.95;99845.34;7358173;19;20010;-57
2021/12/30 08:57:55;;;;;;;0.10;0.10;;;;;;;14.62;80.35;99852.22;7358896;19;20007;-57
2021/12/30 09:00:23;;;;;;;0.10;0.10;;;;;;;14.50;80.05;99824.84;7361690;19;20066;-57
2021/12/30 09:02:50;;;;;;;0.03;0.03;;;;;;;14.65;79.96;99857.34;7364219;19;20010;-57
2021/12/30 09:05:16;;;;;;;0.10;0.10;;;;;;;14.66;80.06;99860.81;7352381;19;20090;-57
2021/12/30 09:07:42;;;;;;;0.10;0.10;;;;;;;14.68;80.01;99862.41;7356288;19;20085;-57
2021/12/30 09:10:10;;;;;;;0.10;0.10;;;;;;;14.70;79.81;99860.56;7358137;19;20014;-57
2021/12/30 09:12:36;;;;;;;0.10;0.10;;;;;;;14.70;79.98;99878.97;7359075;19;20383;-56
2021/12/30 09:15:03;;;;;;;0.10;0.10;;;;;;;14.70;80.08;99876.34;7359448;19;20470;-57
2021/12/30 09:17:28;;;;;;;0.10;0.10;;;;;;;14.70;79.88;99883.34;7361428;19;20049;-57
2021/12/30 09:19:54;;;;;;;0.10;0.10;;;;;;;14.57;79.64;99859.50;7350694;19;20018;-56
2021/12/30 09:22:19;;;;;;;0.10;0.10;;;;;;;14.70;79.79;99886.84;7360523;19;20026;-57
2021/12/30 09:24:45;;;;;;;0.10;0.10;;;;;;;14.70;80.05;99881.59;7361993;19;20018;-57
2021/12/30 09:27:10;;;;;;;0.00;0.00;;;;;;;14.71;80.03;99883.28;7360109;19;20052;-57
2021/12/30 09:29:36;;;;;;;0.10;0.10;;;;;;;14.73;79.97;99878.78;7360211;19;20018;-57
2021/12/30 09:32:01;;;;;;;0.10;0.10;;;;;;;14.70;80.17;99875.47;7362453;19;20335;-57
2021/12/30 09:34:27;;;;;;;0.10;0.10;;;;;;;14.70;79.95;99876.34;7358466;19;20028;-57
2021/12/30 09:36:52;;;;;;;0.10;0.10;;;;;;;14.78;80.17;99884.66;7356427;19;20051;-57
2021/12/30 09:39:18;;;;;;;0.10;0.10;;;;;;;14.79;80.58;99891.59;7357686;19;20006;-57
2021/12/30 09:41:45;;;;;;;0.10;0.10;;;;;;;14.81;80.39;99890.69;7361895;19;20011;-57
2021/12/30 09:44:12;;;;;;;0.00;0.00;;;;;;;14.84;80.76;99888.72;7362270;19;20007;-57
2021/12/30 09:46:38;;;;;;;;;;;;;;;14.91;81.18;99894.53;7361343;19;20034;-56
2021/12/30 09:49:06;;;;;;;0.00;0.00;;;;;;;14.89;80.82;99893.75;7358326;19;20399;-57
2021/12/30 09:51:32;;;;;;;0.10;0.10;;;;;;;14.90;80.49;99908.56;7358422;19;20007;-58
2021/12/30 09:53:58;;;;;;;0.10;0.10;;;;;;;14.89;80.93;99897.22;7354857;19;20459;-57
2021/12/30 09:56:23;;;;;;;0.05;0.05;;;;;;;14.89;80.85;99899.00;7350401;19;20023;-57
2021/12/30 09:58:49;;;;;;;0.00;0.00;;;;;;;14.94;81.14;99910.13;7352162;19;20022;-57
2021/12/30 10:01:15;;;;;;;0.10;0.10;;;;;;;14.96;80.75;99910.91;7356608;19;20023;-57
2021/12/30 10:03:42;;;;;;;0.00;0.00;;;;;;;14.91;80.88;99895.38;7359795;19;20010;-57
2021/12/30 10:06:13;;;;;;;0.10;0.10;;;;;;;15.03;80.64;99909.63;7358745;19;20467;-57
2021/12/30 10:08:43;;;;;;;0.10;0.10;;;;;;;15.03;80.90;99901.75;7359400;19;20485;-57
2021/12/30 10:11:13;;;;;;;0.08;0.08;;;;;;;15.08;80.73;99917.28;7359028;19;20033;-57
2021/12/30 10:13:49;;;;;;;0.00;0.00;;;;;;;15.13;80.95;99910.84;7362565;19;20467;-56
2021/12/30 10:16:16;;;;;;;0.10;0.10;;;;;;;15.13;80.99;99913.47;7351106;19;20579;-57
2021/12/30 10:18:47;;;;;;;0.10;0.10;;;;;;;15.15;81.11;99903.69;7356840;19;20058;-55
2021/12/30 10:21:30;;;;;;;0.10;0.10;;;;;;;15.20;80.88;99912.19;7353930;19;20022;-57
2021/12/30 10:24:01;;;;;;;0.00;0.00;;;;;;;15.22;80.83;99926.13;7361265;19;20006;-57
2021/12/30 10:26:26;;;;;;;0.05;0.05;;;;;;;15.21;80.34;99924.44;7366500;19;20463;-57
2021/12/30 10:28:57;;;;;;;0.10;0.10;;;;;;;15.10;80.40;99908.34;7366560;19;20652;-57
2021/12/30 10:31:27;;;;;;;0.03;0.03;;;;;;;15.24;80.54;99929.50;7367825;19;20077;-56
2021/12/30 10:34:05;;;;;;;0.10;0.10;;;;;;;15.28;80.66;99932.81;7368393;19;20010;-57
2021/12/30 10:36:45;;;;;;;0.00;0.00;;;;;;;15.29;80.41;99927.47;7357919;19;20017;-57
2021/12/30 10:39:14;;;;;;;0.10;0.10;;;;;;;15.28;80.43;99919.69;7365518;19;20459;-58
2021/12/30 10:41:39;;;;;;;0.10;0.10;;;;;;;15.14;79.89;99907.25;7365469;19;20014;-57
2021/12/30 10:44:05;;;;;;;0.10;0.10;;;;;;;15.27;80.24;99926.72;7363783;19;20016;-57
2021/12/30 10:46:31;;;;;;;0.10;0.10;;;;;;;15.28;80.46;99931.03;7365768;19;20082;-57
2021/12/30 10:48:59;;;;;;;0.10;0.10;;;;;;;15.30;80.07;99933.56;7364328;19;20020;-57
2021/12/30 10:51:34;;;;;;;0.10;0.10;;;;;;;15.20;80.33;99906.94;7364452;19;20029;-57
2021/12/30 10:54:09;;;;;;;0.10;0.10;;;;;;;15.32;80.35;99919.44;7362847;19;20508;-57
2021/12/30 10:56:38;;;;;;;0.10;0.10;;;;;;;15.39;79.52;99932.25;7364800;19;20363;-57
2021/12/30 10:59:10;;;;;;;0.10;0.10;;;;;;;15.42;80.02;99935.56;7361330;19;20563;-57
2021/12/30 11:01:44;;;;;;;0.10;0.10;;;;;;;15.44;79.74;99923.16;7357217;19;20034;-57
2021/12/30 11:04:10;;;;;;;0.10;0.10;;;;;;;15.43;79.82;99924.09;7365031;19;20015;-57
2021/12/30 11:06:37;;;;;;;0.10;0.10;;;;;;;15.43;79.54;99913.56;7366114;19;20082;-57
2021/12/30 11:09:23;;;;;;;0.10;0.10;;;;;;;15.53;79.95;99916.53;7367752;19;20023;-56
2021/12/30 11:11:55;;;;;;;0.00;0.00;;;;;;;15.52;79.34;99904.31;7363231;19;20384;-57
2021/12/30 11:14:23;;;;;;;0.10;0.10;;;;;;;15.53;79.16;99898.97;7364944;19;20006;-57
2021/12/30 11:16:59;;;;;;;0.10;0.10;;;;;;;15.58;79.43;99885.56;7366627;19;20017;-57
2021/12/30 11:19:27;;;;;;;0.10;0.10;;;;;;;15.59;79.11;99897.78;7364665;19;20014;-58
2021/12/30 11:21:53;;;;;;;0.10;0.10;;;;;;;15.60;79.01;99902.09;7366187;19;20045;-58
2021/12/30 11:24:20;;;;;;;0.10;0.10;;;;;;;15.60;79.10;99896.84;7368931;19;20018;-57
2021/12/30 11:26:45;;;;;;;0.10;0.10;;;;;;;15.62;78.82;99900.25;7365877;19;20007;-58
2021/12/30 11:29:11;;;;;;;0.00;0.00;;;;;;;15.53;78.94;99887.59;7358576;19;21042;-57
2021/12/30 11:31:36;;;;;;;0.10;0.10;;;;;;;15.68;79.23;99905.19;7360016;19;20021;-58
2021/12/30 11:34:03;;;;;;;0.10;0.10;;;;;;;15.71;79.11;99897.13;7360233;19;20431;-56